createdAt,value
2022-09-12T00:00:23.611Z,13.90
2022-09-12T00:02:53.107Z,13.80
2022-09-12T00:05:22.357Z,13.80
2022-09-12T00:07:50.155Z,13.80
2022-09-12T00:10:18.496Z,13.80
2022-09-12T00:12:46.467Z,13.80
2022-09-12T00:15:14.436Z,13.80
2022-09-12T00:17:42.277Z,13.80
2022-09-12T00:20:10.359Z,13.80
2022-09-12T00:22:39.820Z,13.80
2022-09-12T00:25:08.392Z,13.70
2022-09-12T00:27:36.216Z,13.70
2022-09-12T00:30:04.206Z,13.60
2022-09-12T00:32:32.043Z,13.60
2022-09-12T00:34:59.851Z,13.50
2022-09-12T00:37:27.670Z,13.50
2022-09-12T00:39:57.426Z,13.50
2022-09-12T00:42:25.245Z,13.50
2022-09-12T00:44:53.845Z,13.50
2022-09-12T00:47:23.381Z,13.50
2022-09-12T00:49:53.045Z,13.50
2022-09-12T00:52:23.162Z,13.50
2022-09-12T00:54:52.847Z,13.50
2022-09-12T00:57:23.695Z,13.40
2022-09-12T00:59:52.813Z,13.40
2022-09-12T01:02:20.720Z,13.30
2022-09-12T01:04:48.924Z,13.20
2022-09-12T01:07:17.208Z,13.20
2022-09-12T01:09:45.931Z,13.20
2022-09-12T01:12:15.607Z,13.10
2022-09-12T01:14:44.830Z,13.10
2022-09-12T01:17:13.868Z,13.10
2022-09-12T01:20:04.400Z,13.10
2022-09-12T01:22:42.994Z,13.10
2022-09-12T01:25:14.673Z,13.10
2022-09-12T01:27:48.824Z,13.10
2022-09-12T01:30:28.905Z,13.10
2022-09-12T01:33:02.960Z,13.10
2022-09-12T01:35:33.371Z,13.20
2022-09-12T01:38:08.247Z,13.20
2022-09-12T01:40:43.914Z,13.20
2022-09-12T01:43:18.866Z,13.00
2022-09-12T01:45:52.327Z,13.00
2022-09-12T01:48:21.079Z,13.00
2022-09-12T01:50:51.770Z,13.00
2022-09-12T01:53:21.809Z,13.10
2022-09-12T01:55:51.347Z,13.00
2022-09-12T01:58:21.470Z,13.00
2022-09-12T02:00:52.594Z,13.00
2022-09-12T02:03:24.067Z,12.90
2022-09-12T02:05:54.460Z,12.90
2022-09-12T02:08:26.397Z,12.90
2022-09-12T02:10:56.062Z,12.90
2022-09-12T02:13:27.040Z,12.80
2022-09-12T02:16:00.069Z,12.70
2022-09-12T02:18:30.108Z,12.80
2022-09-12T02:20:58.385Z,12.80
2022-09-12T02:23:28.519Z,12.70
2022-09-12T02:25:58.726Z,12.70
2022-09-12T02:28:29.205Z,12.70
2022-09-12T02:31:01.409Z,12.60
2022-09-12T02:33:33.471Z,12.60
2022-09-12T02:36:04.938Z,12.60
2022-09-12T02:38:37.919Z,12.60
2022-09-12T02:41:06.083Z,12.60
2022-09-12T02:43:34.046Z,12.60
2022-09-12T02:46:03.266Z,12.60
2022-09-12T02:48:33.123Z,12.50
2022-09-12T02:51:01.548Z,12.50
2022-09-12T02:53:29.670Z,12.50
2022-09-12T02:55:58.277Z,12.40
2022-09-12T02:58:28.178Z,12.30
2022-09-12T03:00:59.492Z,12.20
2022-09-12T03:03:38.251Z,12.20
2022-09-12T03:06:15.277Z,12.20
2022-09-12T03:08:54.240Z,12.20
2022-09-12T03:11:45.915Z,12.20
2022-09-12T03:14:20.228Z,12.30
2022-09-12T03:16:53.689Z,12.20
2022-09-12T03:19:26.254Z,12.20
2022-09-12T03:21:59.505Z,12.20
2022-09-12T03:24:32.020Z,12.10
2022-09-12T03:27:01.931Z,12.20
2022-09-12T03:29:30.340Z,12.20
2022-09-12T03:31:58.918Z,12.10
2022-09-12T03:34:28.629Z,12.10
2022-09-12T03:36:56.955Z,12.10
2022-09-12T03:39:26.366Z,12.10
2022-09-12T03:41:54.193Z,12.10
2022-09-12T03:44:21.970Z,12.10
2022-09-12T03:46:50.126Z,12.10
2022-09-12T03:49:17.963Z,12.00
2022-09-12T03:51:47.170Z,12.00
2022-09-12T03:54:15.050Z,12.00
2022-09-12T03:56:42.887Z,12.00
2022-09-12T03:59:10.846Z,11.90
2022-09-12T04:01:38.794Z,11.90
2022-09-12T04:04:06.617Z,12.00
2022-09-12T04:06:34.411Z,12.00
2022-09-12T04:09:03.737Z,12.10
2022-09-12T04:11:32.181Z,12.10
2022-09-12T04:14:00.001Z,12.10
2022-09-12T04:16:27.889Z,12.20
2022-09-12T04:18:55.838Z,12.20
2022-09-12T04:21:23.648Z,12.20
2022-09-12T04:23:51.787Z,12.20
2022-09-12T04:26:21.530Z,12.20
2022-09-12T04:28:49.494Z,12.20
2022-09-12T04:31:20.633Z,12.20
2022-09-12T04:33:48.417Z,12.20
2022-09-12T04:36:16.972Z,12.20
2022-09-12T04:38:45.213Z,12.20
2022-09-12T04:41:14.111Z,12.20
2022-09-12T04:43:43.534Z,12.20
2022-09-12T04:46:12.298Z,12.20
2022-09-12T04:48:40.482Z,12.10
2022-09-12T04:51:09.475Z,12.10
2022-09-12T04:53:38.659Z,12.10
2022-09-12T04:56:07.074Z,12.10
2022-09-12T04:58:35.163Z,12.20
2022-09-12T05:01:08.891Z,12.20
2022-09-12T05:03:38.899Z,12.20
2022-09-12T05:06:07.700Z,12.20
2022-09-12T05:08:36.297Z,12.20
2022-09-12T05:11:05.011Z,12.20
2022-09-12T05:13:33.631Z,12.20
2022-09-12T05:16:02.621Z,12.30
2022-09-12T05:18:32.349Z,12.40
2022-09-12T05:21:00.680Z,12.50
2022-09-12T05:23:28.653Z,12.60
2022-09-12T05:25:57.575Z,12.80
2022-09-12T05:28:26.243Z,12.90
2022-09-12T05:31:00.972Z,13.10
2022-09-12T05:33:28.839Z,13.20
2022-09-12T05:35:58.360Z,13.50
2022-09-12T05:38:28.328Z,13.70
2022-09-12T05:40:56.368Z,13.90
2022-09-12T05:43:24.129Z,14.00
2022-09-12T05:45:52.079Z,14.30
2022-09-12T05:48:19.910Z,14.50
2022-09-12T05:50:47.819Z,14.80
2022-09-12T05:53:17.287Z,15.10
2022-09-12T05:55:45.093Z,15.40
2022-09-12T05:58:12.985Z,15.70
2022-09-12T06:00:40.933Z,16.00
2022-09-12T06:03:09.310Z,16.40
2022-09-12T06:05:37.171Z,16.80
2022-09-12T06:08:05.192Z,17.20
2022-09-12T06:10:35.291Z,17.60
2022-09-12T06:13:04.273Z,18.10
2022-09-12T06:15:32.137Z,18.50
2022-09-12T06:17:59.970Z,19.00
2022-09-12T06:20:27.813Z,19.50
2022-09-12T06:22:55.663Z,19.70
2022-09-12T06:25:23.519Z,19.80
2022-09-12T06:27:52.720Z,19.90
2022-09-12T06:30:25.212Z,20.00
2022-09-12T06:32:53.699Z,20.20
2022-09-12T06:35:21.610Z,20.80
2022-09-12T06:37:49.490Z,21.00
2022-09-12T06:40:17.422Z,21.20
2022-09-12T06:42:45.386Z,21.50
2022-09-12T06:45:22.905Z,21.30
2022-09-12T06:47:51.375Z,21.90
2022-09-12T06:50:19.187Z,22.10
2022-09-12T06:52:49.809Z,22.50
2022-09-12T06:55:20.957Z,22.80
2022-09-12T06:57:50.419Z,23.40
2022-09-12T07:00:18.544Z,23.40
2022-09-12T07:02:47.840Z,22.90
2022-09-12T07:05:15.958Z,22.50
2022-09-12T07:07:44.147Z,22.70
2022-09-12T07:10:12.441Z,23.00
2022-09-12T07:12:40.473Z,23.10
2022-09-12T07:15:08.839Z,23.00
2022-09-12T07:17:36.996Z,23.80
2022-09-12T07:20:07.140Z,24.20
2022-09-12T07:22:35.452Z,24.70
2022-09-12T07:25:03.419Z,25.90
2022-09-12T07:27:31.313Z,27.10
2022-09-12T07:30:00.362Z,27.90
2022-09-12T07:32:28.491Z,27.60
2022-09-12T07:34:56.397Z,26.90
2022-09-12T07:37:25.636Z,26.10
2022-09-12T07:39:53.598Z,25.50
2022-09-12T07:42:21.463Z,25.20
2022-09-12T07:44:50.288Z,25.40
2022-09-12T07:47:18.361Z,25.70
2022-09-12T07:49:46.256Z,26.20
2022-09-12T07:52:14.200Z,27.00
2022-09-12T07:54:43.383Z,27.60
2022-09-12T07:57:11.373Z,28.20
2022-09-12T07:59:52.648Z,29.10
2022-09-12T08:02:21.190Z,29.10
2022-09-12T08:04:49.348Z,29.40
2022-09-12T08:07:18.336Z,29.80
2022-09-12T08:09:47.638Z,29.80
2022-09-12T08:12:16.505Z,29.20
2022-09-12T08:14:44.435Z,29.10
2022-09-12T08:17:12.250Z,29.20
2022-09-12T08:19:40.074Z,29.30
2022-09-12T08:22:08.265Z,28.90
2022-09-12T08:24:36.104Z,28.70
2022-09-12T08:27:05.489Z,28.60
2022-09-12T08:29:33.339Z,28.70
2022-09-12T08:32:01.309Z,28.80
2022-09-12T08:34:29.179Z,28.30
2022-09-12T08:36:57.663Z,28.20
2022-09-12T08:39:25.643Z,27.90
2022-09-12T08:41:58.884Z,28.00
2022-09-12T08:44:33.212Z,28.20
2022-09-12T08:47:18.927Z,28.30
2022-09-12T08:49:51.123Z,28.40
2022-09-12T08:52:20.863Z,28.60
2022-09-12T08:54:50.076Z,28.90
2022-09-12T08:57:19.042Z,29.80
2022-09-12T08:59:48.344Z,30.30
2022-09-12T09:02:25.067Z,30.90
2022-09-12T09:04:54.351Z,30.80
2022-09-12T09:07:28.870Z,31.00
2022-09-12T09:10:04.667Z,31.70
2022-09-12T09:12:37.783Z,32.50
2022-09-12T09:15:22.119Z,33.70
2022-09-12T09:17:52.753Z,35.30
2022-09-12T09:20:24.806Z,36.80
2022-09-12T09:22:56.781Z,38.00
2022-09-12T09:25:26.036Z,37.10
2022-09-12T09:27:58.653Z,36.80
2022-09-12T09:30:28.626Z,36.90
2022-09-12T09:32:58.487Z,37.50
2022-09-12T09:35:34.411Z,37.80
2022-09-12T09:38:08.864Z,38.20
2022-09-12T09:40:41.523Z,38.50
2022-09-12T09:43:14.145Z,38.60
2022-09-12T09:45:45.804Z,39.10
2022-09-12T09:48:17.702Z,38.60
2022-09-12T09:50:49.001Z,39.00
2022-09-12T09:53:26.582Z,38.70
2022-09-12T09:55:56.055Z,38.40
2022-09-12T09:58:31.037Z,37.70
2022-09-12T10:01:04.093Z,36.60
2022-09-12T10:03:35.987Z,35.90
2022-09-12T10:06:07.143Z,35.60
2022-09-12T10:08:36.392Z,36.00
2022-09-12T10:11:05.147Z,36.70
2022-09-12T10:13:35.941Z,36.80
2022-09-12T10:16:06.359Z,35.90
2022-09-12T10:18:35.216Z,36.00
2022-09-12T10:21:03.619Z,36.00
2022-09-12T10:23:36.609Z,35.50
2022-09-12T10:26:06.150Z,35.80
2022-09-12T10:28:36.210Z,35.70
2022-09-12T10:31:05.935Z,35.30
2022-09-12T10:33:37.398Z,35.00
2022-09-12T10:36:06.086Z,35.60
2022-09-12T10:38:34.412Z,36.60
2022-09-12T10:41:04.007Z,37.60
2022-09-12T10:43:35.939Z,38.40
2022-09-12T10:46:19.320Z,39.40
2022-09-12T10:48:49.165Z,40.40
2022-09-12T10:51:27.461Z,40.90
2022-09-12T10:53:56.344Z,41.30
2022-09-12T10:56:25.375Z,42.30
2022-09-12T10:59:00.640Z,42.50
2022-09-12T11:01:35.297Z,41.10
2022-09-12T11:04:18.994Z,40.70
2022-09-12T11:06:53.197Z,40.70
2022-09-12T11:09:23.224Z,40.30
2022-09-12T11:11:59.375Z,40.40
2022-09-12T11:14:40.073Z,39.40
2022-09-12T11:17:13.759Z,39.70
2022-09-12T11:19:50.966Z,40.70
2022-09-12T11:22:22.648Z,40.70
2022-09-12T11:25:03.820Z,41.00
2022-09-12T11:27:39.631Z,42.00
2022-09-12T11:30:10.422Z,43.10
2022-09-12T11:32:47.109Z,44.00
2022-09-12T11:35:20.710Z,43.40
2022-09-12T11:37:57.038Z,42.30
2022-09-12T11:40:28.776Z,40.90
2022-09-12T11:42:59.354Z,39.80
2022-09-12T11:45:30.027Z,38.80
2022-09-12T11:48:00.427Z,37.90
2022-09-12T11:50:30.962Z,38.10
2022-09-12T11:53:01.302Z,37.90
2022-09-12T11:55:33.582Z,39.20
2022-09-12T11:58:01.585Z,40.30
2022-09-12T12:00:32.845Z,41.30
2022-09-12T12:03:04.980Z,40.80
2022-09-12T12:05:37.104Z,40.10
2022-09-12T12:08:06.299Z,40.20
2022-09-12T12:10:36.776Z,40.60
2022-09-12T12:13:05.653Z,41.80
2022-09-12T12:15:35.952Z,43.00
2022-09-12T12:18:05.941Z,43.60
2022-09-12T12:20:35.523Z,44.10
2022-09-12T12:23:04.541Z,44.90
2022-09-12T12:25:42.899Z,45.10
2022-09-12T12:28:10.747Z,43.30
2022-09-12T12:31:00.000Z,41.60
2022-09-12T12:33:45.765Z,40.80
2022-09-12T12:36:30.334Z,41.00
2022-09-12T12:38:59.812Z,41.60
2022-09-12T12:41:46.129Z,42.60
2022-09-12T12:44:31.711Z,43.30
2022-09-12T12:47:10.065Z,43.70
2022-09-12T12:49:38.435Z,44.40
2022-09-12T12:52:16.966Z,45.00
2022-09-12T12:54:53.596Z,45.50
2022-09-12T12:57:27.101Z,45.20
2022-09-12T12:59:56.529Z,44.90
2022-09-12T13:02:28.243Z,45.40
2022-09-12T13:04:56.993Z,45.60
2022-09-12T13:07:31.923Z,45.50
2022-09-12T13:10:00.354Z,45.30
2022-09-12T13:12:30.121Z,45.30
2022-09-12T13:14:59.363Z,44.90
2022-09-12T13:17:29.131Z,44.60
2022-09-12T13:20:26.807Z,44.70
2022-09-12T13:22:54.903Z,44.00
2022-09-12T13:25:24.918Z,42.10
2022-09-12T13:28:03.687Z,41.50
2022-09-12T13:30:33.265Z,40.40
2022-09-12T13:33:06.839Z,39.90
2022-09-12T13:35:41.168Z,39.90
2022-09-12T13:38:17.050Z,39.80
2022-09-12T13:40:52.837Z,39.70
2022-09-12T13:43:24.308Z,39.20
2022-09-12T13:45:54.113Z,39.00
2022-09-12T13:48:24.185Z,38.40
2022-09-12T13:50:54.183Z,37.50
2022-09-12T13:53:24.721Z,36.80
2022-09-12T13:55:54.182Z,37.20
2022-09-12T13:58:23.050Z,37.50
2022-09-12T14:01:05.577Z,37.90
2022-09-12T14:03:53.859Z,37.90
2022-09-12T14:06:25.111Z,37.30
2022-09-12T14:08:54.953Z,37.10
2022-09-12T14:11:26.077Z,36.90
2022-09-12T14:13:56.201Z,36.60
2022-09-12T14:16:28.960Z,35.80
2022-09-12T14:18:57.121Z,35.70
2022-09-12T14:21:31.089Z,35.70
2022-09-12T14:24:00.920Z,35.70
2022-09-12T14:26:31.278Z,35.80
2022-09-12T14:28:59.950Z,35.80
2022-09-12T14:31:30.415Z,35.90
2022-09-12T14:34:09.789Z,36.10
2022-09-12T14:36:38.443Z,36.50
2022-09-12T14:39:08.894Z,36.40
2022-09-12T14:41:38.177Z,36.00
2022-09-12T14:44:08.303Z,35.90
2022-09-12T14:46:36.835Z,36.10
2022-09-12T14:49:08.949Z,36.70
2022-09-12T14:51:38.280Z,37.20
2022-09-12T14:54:07.977Z,37.20
2022-09-12T14:56:40.287Z,36.70
2022-09-12T14:59:26.980Z,36.00
2022-09-12T15:02:09.750Z,36.10
2022-09-12T15:04:40.715Z,36.30
2022-09-12T15:07:14.997Z,36.50
2022-09-12T15:09:47.314Z,36.50
2022-09-12T15:12:15.343Z,36.40
2022-09-12T15:14:43.212Z,36.40
2022-09-12T15:17:11.084Z,36.40
2022-09-12T15:19:39.161Z,36.40
2022-09-12T15:22:07.024Z,36.40
2022-09-12T15:24:34.955Z,36.20
2022-09-12T15:27:06.552Z,35.80
2022-09-12T15:29:35.387Z,35.70
2022-09-12T15:32:04.105Z,35.80
2022-09-12T15:34:32.126Z,36.20
2022-09-12T15:36:59.990Z,36.60
2022-09-12T15:39:27.869Z,36.40
2022-09-12T15:41:55.844Z,35.70
2022-09-12T15:44:26.264Z,34.90
2022-09-12T15:46:54.151Z,34.00
2022-09-12T15:49:22.055Z,33.80
2022-09-12T15:51:50.050Z,33.90
2022-09-12T15:54:18.315Z,34.00
2022-09-12T15:56:46.372Z,33.90
2022-09-12T15:59:14.216Z,33.80
2022-09-12T16:01:43.476Z,33.70
2022-09-12T16:04:21.115Z,33.60
2022-09-12T16:06:49.015Z,33.60
2022-09-12T16:09:16.969Z,33.80
2022-09-12T16:11:46.084Z,33.70
2022-09-12T16:14:15.141Z,33.40
2022-09-12T16:16:45.027Z,33.10
2022-09-12T16:19:13.398Z,33.00
2022-09-12T16:21:41.322Z,32.80
2022-09-12T16:24:09.461Z,32.80
2022-09-12T16:26:37.525Z,32.50
2022-09-12T16:29:05.763Z,32.40
2022-09-12T16:31:33.672Z,32.50
2022-09-12T16:34:03.000Z,32.20
2022-09-12T16:36:30.856Z,31.90
2022-09-12T16:38:59.219Z,31.80
2022-09-12T16:41:27.342Z,31.60
2022-09-12T16:43:55.615Z,31.30
2022-09-12T16:46:24.579Z,30.90
2022-09-12T16:48:53.062Z,30.60
2022-09-12T16:51:24.096Z,30.30
2022-09-12T16:53:52.180Z,29.90
2022-09-12T16:56:20.088Z,29.60
2022-09-12T16:58:48.457Z,29.30
2022-09-12T17:01:17.490Z,29.00
2022-09-12T17:03:45.666Z,28.80
2022-09-12T17:06:14.716Z,28.50
2022-09-12T17:08:45.331Z,28.20
2022-09-12T17:11:14.239Z,27.90
2022-09-12T17:14:03.137Z,27.60
2022-09-12T17:16:31.203Z,27.30
2022-09-12T17:18:59.231Z,27.00
2022-09-12T17:21:27.085Z,26.70
2022-09-12T17:23:56.406Z,26.50
2022-09-12T17:26:25.846Z,26.20
2022-09-12T17:28:53.817Z,26.00
2022-09-12T17:31:21.838Z,25.70
2022-09-12T17:33:49.952Z,25.50
2022-09-12T17:36:18.606Z,25.20
2022-09-12T17:38:47.611Z,25.00
2022-09-12T17:41:18.074Z,24.70
2022-09-12T17:43:46.620Z,24.40
2022-09-12T17:46:14.600Z,24.10
2022-09-12T17:48:42.697Z,23.90
2022-09-12T17:51:11.008Z,23.60
2022-09-12T17:53:39.058Z,23.40
2022-09-12T17:56:07.531Z,23.10
2022-09-12T17:58:37.306Z,22.90
2022-09-12T18:01:23.457Z,22.70
2022-09-12T18:03:54.933Z,22.50
2022-09-12T18:06:23.268Z,22.30
2022-09-12T18:08:51.279Z,22.10
2022-09-12T18:11:19.532Z,21.90
2022-09-12T18:13:48.959Z,21.80
2022-09-12T18:16:17.320Z,21.70
2022-09-12T18:18:45.420Z,21.50
2022-09-12T18:21:13.615Z,21.40
2022-09-12T18:23:41.730Z,21.30
2022-09-12T18:26:10.912Z,21.10
2022-09-12T18:28:40.817Z,21.10
2022-09-12T18:31:13.177Z,20.90
2022-09-12T18:33:41.261Z,20.80
2022-09-12T18:36:10.222Z,20.80
2022-09-12T18:38:38.337Z,20.70
2022-09-12T18:41:07.002Z,20.50
2022-09-12T18:43:35.497Z,20.40
2022-09-12T18:46:04.618Z,20.30
2022-09-12T18:48:34.648Z,20.10
2022-09-12T18:51:03.552Z,20.00
2022-09-12T18:53:31.964Z,19.90
2022-09-12T18:56:03.548Z,19.80
2022-09-12T18:58:31.474Z,19.60
2022-09-12T19:00:59.957Z,19.50
2022-09-12T19:03:28.091Z,19.40
2022-09-12T19:05:57.433Z,19.30
2022-09-12T19:08:27.182Z,19.20
2022-09-12T19:10:56.131Z,19.20
2022-09-12T19:13:24.143Z,19.10
2022-09-12T19:15:52.232Z,19.00
2022-09-12T19:18:20.467Z,18.90
2022-09-12T19:20:51.397Z,18.90
2022-09-12T19:23:20.776Z,18.80
2022-09-12T19:25:56.202Z,18.80
2022-09-12T19:28:24.127Z,18.70
2022-09-12T19:30:53.266Z,18.60
2022-09-12T19:33:21.279Z,18.50
2022-09-12T19:35:49.300Z,18.40
2022-09-12T19:38:17.442Z,18.30
2022-09-12T19:40:55.970Z,18.20
2022-09-12T19:43:23.877Z,18.20
2022-09-12T19:45:51.964Z,18.20
2022-09-12T19:48:19.881Z,18.10
2022-09-12T19:50:47.966Z,18.00
2022-09-12T19:53:16.207Z,18.00
2022-09-12T19:55:44.090Z,17.90
2022-09-12T19:58:13.404Z,17.80
2022-09-12T20:00:41.372Z,17.70
2022-09-12T20:03:09.265Z,17.70
2022-09-12T20:05:42.021Z,17.60
2022-09-12T20:08:10.804Z,17.60
2022-09-12T20:10:38.657Z,17.50
2022-09-12T20:13:07.060Z,17.50
2022-09-12T20:15:36.267Z,17.40
2022-09-12T20:18:04.227Z,17.30
2022-09-12T20:20:32.647Z,17.20
2022-09-12T20:23:00.574Z,17.10
2022-09-12T20:25:28.393Z,17.10
2022-09-12T20:28:00.029Z,17.00
2022-09-12T20:30:28.196Z,16.90
2022-09-12T20:32:58.084Z,16.80
2022-09-12T20:35:25.965Z,16.70
2022-09-12T20:37:53.902Z,16.70
2022-09-12T20:40:21.894Z,16.60
2022-09-12T20:42:50.578Z,16.60
2022-09-12T20:45:19.325Z,16.60
2022-09-12T20:47:47.167Z,16.60
2022-09-12T20:50:16.458Z,16.50
2022-09-12T20:52:44.834Z,16.50
2022-09-12T20:55:12.970Z,16.50
2022-09-12T20:57:40.897Z,16.40
2022-09-12T21:00:10.935Z,16.40
2022-09-12T21:02:38.918Z,16.30
2022-09-12T21:05:07.330Z,16.20
2022-09-12T21:07:36.537Z,16.20
2022-09-12T21:10:04.675Z,16.20
2022-09-12T21:12:32.488Z,16.10
2022-09-12T21:15:00.340Z,16.10
2022-09-12T21:17:28.231Z,16.10
2022-09-12T21:19:56.069Z,16.00
2022-09-12T21:22:24.071Z,16.00
2022-09-12T21:24:53.336Z,16.00
2022-09-12T21:27:21.475Z,15.90
2022-09-12T21:29:50.467Z,16.00
2022-09-12T21:32:18.377Z,15.90
2022-09-12T21:34:46.279Z,15.90
2022-09-12T21:37:14.297Z,15.90
2022-09-12T21:39:42.199Z,15.90
2022-09-12T21:42:11.576Z,15.90
2022-09-12T21:44:39.387Z,15.90
2022-09-12T21:47:07.422Z,16.00
2022-09-12T21:49:37.071Z,16.00
2022-09-12T21:52:05.382Z,16.00
2022-09-12T21:54:34.969Z,16.10
2022-09-12T21:57:02.808Z,16.10
2022-09-12T21:59:32.014Z,16.10
2022-09-12T22:02:00.379Z,16.10
2022-09-12T22:04:28.318Z,16.10
2022-09-12T22:06:56.139Z,16.10
2022-09-12T22:09:23.967Z,16.10
2022-09-12T22:11:52.004Z,16.10
2022-09-12T22:14:19.999Z,16.10
2022-09-12T22:16:49.436Z,16.10
2022-09-12T22:19:17.319Z,16.10
2022-09-12T22:22:05.938Z,16.00
2022-09-12T22:24:32.784Z,16.00
2022-09-12T22:27:03.350Z,16.00
2022-09-12T22:29:31.231Z,16.00
2022-09-12T22:32:00.741Z,15.90
2022-09-12T22:34:29.103Z,15.90
2022-09-12T22:36:56.936Z,15.80
2022-09-12T22:39:25.244Z,15.80
2022-09-12T22:41:53.066Z,15.80
2022-09-12T22:44:20.850Z,15.80
2022-09-12T22:46:48.726Z,15.80
2022-09-12T22:49:17.921Z,15.80
2022-09-12T22:51:45.742Z,15.90
2022-09-12T22:54:14.778Z,16.00
2022-09-12T22:56:42.823Z,16.00
2022-09-12T22:59:10.712Z,15.90
2022-09-12T23:01:38.565Z,15.80
2022-09-12T23:04:06.459Z,15.80
2022-09-12T23:06:35.720Z,15.70
2022-09-12T23:09:03.743Z,15.70
2022-09-12T23:11:31.576Z,15.70
2022-09-12T23:13:59.953Z,15.70
2022-09-12T23:16:28.398Z,15.70
2022-09-12T23:18:56.571Z,15.60
2022-09-12T23:21:24.771Z,15.50
2022-09-12T23:23:53.945Z,15.50
2022-09-12T23:26:22.852Z,15.40
2022-09-12T23:28:52.642Z,15.30
2022-09-12T23:31:20.755Z,15.20
2022-09-12T23:33:49.484Z,15.20
2022-09-12T23:36:17.327Z,15.10
2022-09-12T23:38:46.047Z,15.10
2022-09-12T23:41:16.136Z,15.00
2022-09-12T23:43:45.376Z,15.00
2022-09-12T23:46:14.021Z,14.90
2022-09-12T23:48:42.059Z,14.90
2022-09-12T23:51:10.247Z,14.90
2022-09-12T23:53:38.281Z,14.80
2022-09-12T23:56:07.170Z,14.80
2022-09-12T23:58:36.352Z,14.70
